Time;durP1;ratioP1;P1;durP2;ratioP2;P2;SDS_P1;SDS_P2;PMS_P1;PMS_P2;Temp;Humidity;BMP_temperature;BMP_pressure;BME280_temperature;BME280_humidity;BME280_pressure;Samples;Min_cycle;Max_cycle;Signal;HPM_P1;HPM_P2
2022/08/22 14:24:55;;;;;;;10.25;9.32;;;;;;;;;;4905888;29;20098;-63
2022/08/22 14:27:31;;;;;;;10.23;9.50;;;;;;;;;;4906811;29;20119;-69
2022/08/22 14:30:01;;;;;;;10.05;9.25;;;;;;;;;;4907159;29;20042;-64
2022/08/22 14:32:54;;;;;;;10.43;9.63;;;;;;;;;;4910794;29;20087;-63
2022/08/22 14:35:23;;;;;;;9.75;9.05;;;;;;;;;;4908576;29;20094;-62
2022/08/22 14:37:52;;;;;;;10.25;9.55;;;;;;;;;;4910957;29;20120;-63
2022/08/22 14:40:24;;;;;;;10.40;9.52;;;;;;;;;;4911086;29;20050;-63
2022/08/22 14:42:57;;;;;;;10.00;9.20;;;;;;;;;;4909111;29;20047;-63
2022/08/22 14:45:34;;;;;;;10.82;9.77;;;;;;;;;;4910960;29;20264;-63
2022/08/22 14:48:08;;;;;;;10.43;9.57;;;;;;;;;;4910122;29;20455;-63
2022/08/22 14:50:58;;;;;;;10.95;10.20;;;;;;;;;;4909574;29;20491;-63
2022/08/22 14:53:30;;;;;;;10.75;9.95;;;;;;;;;;4909442;29;20040;-63
2022/08/22 14:55:58;;;;;;;10.27;9.48;;;;;;;;;;4910763;29;20440;-63
2022/08/22 14:58:25;;;;;;;10.23;9.35;;;;;;;;;;4911316;29;20043;-63
2022/08/22 15:00:53;;;;;;;10.50;9.70;;;;;;;;;;4910807;29;20059;-63
2022/08/22 15:03:18;;;;;;;10.70;10.00;;;;;;;;;;4909431;29;20118;-63
2022/08/22 15:05:58;;;;;;;10.23;9.40;;;;;;;;;;4910580;29;20103;-63
2022/08/22 15:08:34;;;;;;;10.27;9.55;;;;;;;;;;4910802;29;20036;-63
2022/08/22 15:11:10;;;;;;;10.18;9.38;;;;;;;;;;4908277;29;20035;-63
2022/08/22 15:13:41;;;;;;;10.15;9.45;;;;;;;;;;4910221;29;20172;-63
2022/08/22 15:16:45;;;;;;;10.38;9.70;;;;;;;;;;4910659;29;20522;-63
2022/08/22 15:19:23;;;;;;;9.65;9.05;;;;;;;;;;4910917;29;20024;-63
2022/08/22 15:21:49;;;;;;;;;;;;;;;;;;4908248;29;20478;-64
2022/08/22 15:24:16;;;;;;;10.15;9.38;;;;;;;;;;4910195;29;19979;-63
2022/08/22 15:26:53;;;;;;;10.35;9.65;;;;;;;;;;4911332;29;20072;-64
2022/08/22 15:29:27;;;;;;;10.02;9.13;;;;;;;;;;4908303;29;20499;-64
2022/08/22 15:32:01;;;;;;;10.63;9.82;;;;;;;;;;4910417;29;21382;-64
2022/08/22 15:34:34;;;;;;;9.77;9.07;;;;;;;;;;4905894;29;20040;-64
2022/08/22 15:37:15;;;;;;;11.25;10.27;;;;;;;;;;4905879;29;20051;-64
2022/08/22 15:40:10;;;;;;;10.77;9.98;;;;;;;;;;4910687;29;20040;-63
2022/08/22 15:43:02;;;;;;;10.70;9.77;;;;;;;;;;4910777;29;20534;-63
2022/08/22 15:45:32;;;;;;;10.18;9.57;;;;;;;;;;4906787;29;20074;-63
2022/08/22 15:48:00;;;;;;;11.02;10.23;;;;;;;;;;4908482;29;20040;-63
2022/08/22 15:50:32;;;;;;;10.98;9.95;;;;;;;;;;4912736;29;20393;-63
2022/08/22 15:53:11;;;;;;;10.68;9.98;;;;;;;;;;4909803;29;20044;-63
2022/08/22 15:55:36;;;;;;;10.35;9.65;;;;;;;;;;4903638;29;20519;-63
2022/08/22 15:58:04;;;;;;;10.93;10.13;;;;;;;;;;4910085;29;20068;-64
2022/08/22 16:01:08;;;;;;;10.40;9.53;;;;;;;;;;4911133;29;20404;-63
2022/08/22 16:03:37;;;;;;;10.82;10.13;;;;;;;;;;4906229;29;20426;-63
2022/08/22 16:06:06;;;;;;;10.57;9.77;;;;;;;;;;4913618;29;20123;-63
2022/08/22 16:08:35;;;;;;;11.00;10.18;;;;;;;;;;4912000;29;20067;-63
2022/08/22 16:11:00;;;;;;;11.63;10.55;;;;;;;;;;4905184;29;20460;-63
2022/08/22 16:13:28;;;;;;;11.13;10.23;;;;;;;;;;4912196;29;20119;-63
2022/08/22 16:16:05;;;;;;;10.77;9.98;;;;;;;;;;4913542;29;20044;-64
2022/08/22 16:18:38;;;;;;;9.77;9.07;;;;;;;;;;4912870;29;20060;-63
2022/08/22 16:21:13;;;;;;;10.25;9.48;;;;;;;;;;4895287;29;20051;-64
2022/08/22 16:23:55;;;;;;;9.85;9.05;;;;;;;;;;4907108;29;20050;-65
2022/08/22 16:26:29;;;;;;;10.30;9.30;;;;;;;;;;4910964;29;20400;-64
2022/08/22 16:28:58;;;;;;;9.80;9.00;;;;;;;;;;4905144;29;20373;-65
2022/08/22 16:31:35;;;;;;;10.45;9.70;;;;;;;;;;4906265;29;20028;-65
2022/08/22 16:34:16;;;;;;;10.60;9.70;;;;;;;;;;4910228;29;20040;-64
2022/08/22 16:37:07;;;;;;;11.60;9.85;;;;;;;;;;4907106;29;20307;-64
2022/08/22 16:40:10;;;;;;;10.80;9.70;;;;;;;;;;4904716;29;20096;-64
2022/08/22 16:42:42;;;;;;;10.07;9.38;;;;;;;;;;4906799;29;20069;-65
2022/08/22 16:45:44;;;;;;;10.38;9.55;;;;;;;;;;4910848;29;20076;-64
2022/08/22 16:48:34;;;;;;;9.88;9.20;;;;;;;;;;4903566;29;20586;-65
2022/08/22 16:51:12;;;;;;;10.60;9.70;;;;;;;;;;4921307;23;20115;-67
2022/08/22 16:53:38;;;;;;;10.68;9.80;;;;;;;;;;4893863;29;20033;-68
2022/08/22 16:56:09;;;;;;;10.18;9.35;;;;;;;;;;4896754;29;20103;-67
2022/08/22 16:59:19;;;;;;;10.43;9.52;;;;;;;;;;4889830;29;20053;-68
2022/08/22 17:01:57;;;;;;;9.50;8.90;;;;;;;;;;4872531;29;20058;-67
2022/08/22 17:05:00;;;;;;;9.80;9.10;;;;;;;;;;4875662;29;20037;-67
2022/08/22 17:07:48;;;;;;;10.25;9.45;;;;;;;;;;4878293;29;20312;-67
2022/08/22 17:10:38;;;;;;;10.25;9.55;;;;;;;;;;4877991;29;20040;-67
2022/08/22 17:13:40;;;;;;;10.30;9.63;;;;;;;;;;4881029;29;20040;-66
2022/08/22 17:16:16;;;;;;;10.10;9.40;;;;;;;;;;4835132;29;20578;-67
2022/08/22 17:19:09;;;;;;;11.05;9.50;;;;;;;;;;4841927;29;20436;-67
2022/08/22 17:22:00;;;;;;;9.93;9.23;;;;;;;;;;4835504;29;20042;-67
2022/08/22 17:24:42;;;;;;;10.02;9.32;;;;;;;;;;4832219;29;20076;-66
2022/08/22 17:27:30;;;;;;;9.77;9.07;;;;;;;;;;4835646;29;20046;-67
2022/08/22 17:30:42;;;;;;;10.10;9.40;;;;;;;;;;4823590;29;20146;-66
2022/08/22 17:33:16;;;;;;;9.88;8.98;;;;;;;;;;4836380;29;20058;-67
2022/08/22 17:35:44;;;;;;;10.13;9.38;;;;;;;;;;4840159;29;20136;-67
2022/08/22 17:38:28;;;;;;;10.20;9.45;;;;;;;;;;4839484;29;20077;-67
2022/08/22 17:41:00;;;;;;;10.10;9.40;;;;;;;;;;4831504;29;20095;-66
2022/08/22 17:43:58;;;;;;;10.25;9.45;;;;;;;;;;4834167;29;20126;-67
2022/08/22 17:46:46;;;;;;;10.07;9.30;;;;;;;;;;4841109;29;21264;-66
2022/08/22 17:49:19;;;;;;;9.80;9.20;;;;;;;;;;4829975;29;20045;-66
2022/08/22 17:51:49;;;;;;;10.13;9.40;;;;;;;;;;4841918;29;20057;-67
2022/08/22 17:54:22;;;;;;;9.68;8.98;;;;;;;;;;4875658;29;20041;-67
2022/08/22 17:56:58;;;;;;;10.50;9.52;;;;;;;;;;4877392;29;20044;-67
2022/08/22 17:59:30;;;;;;;10.18;9.48;;;;;;;;;;4889943;29;20506;-67
2022/08/22 18:02:31;;;;;;;9.90;9.10;;;;;;;;;;4879722;29;20096;-66
2022/08/22 18:05:04;;;;;;;10.30;9.50;;;;;;;;;;4840830;29;20045;-67
2022/08/22 18:07:44;;;;;;;9.63;8.95;;;;;;;;;;4832865;29;20050;-67
2022/08/22 18:10:16;;;;;;;9.38;8.77;;;;;;;;;;4842179;29;20068;-66
2022/08/22 18:12:41;;;;;;;10.05;9.23;;;;;;;;;;4843869;29;20512;-66
2022/08/22 18:15:18;;;;;;;10.02;9.32;;;;;;;;;;4824397;29;20604;-68
2022/08/22 18:17:54;;;;;;;10.40;9.50;;;;;;;;;;4830905;29;20084;-67
2022/08/22 18:20:45;;;;;;;9.93;9.23;;;;;;;;;;4837553;29;20220;-65
2022/08/22 18:23:23;;;;;;;11.85;9.27;;;;;;;;;;4829832;29;20102;-67
2022/08/22 18:26:15;;;;;;;10.07;9.13;;;;;;;;;;4837677;29;20678;-67
2022/08/22 18:28:53;;;;;;;9.52;8.82;;;;;;;;;;4805476;29;20057;-66
2022/08/22 18:31:35;;;;;;;10.13;9.30;;;;;;;;;;4831241;29;20569;-67
2022/08/22 18:34:27;;;;;;;10.15;9.43;;;;;;;;;;4829898;29;20140;-67
2022/08/22 18:37:00;;;;;;;9.95;9.13;;;;;;;;;;4839288;29;20618;-67
2022/08/22 18:39:32;;;;;;;9.68;9.02;;;;;;;;;;4837559;29;20422;-67
2022/08/22 18:42:11;;;;;;;10.02;9.25;;;;;;;;;;4860628;29;20520;-68
2022/08/22 18:44:37;;;;;;;;;;;;;;;;;;4877582;29;20497;-69
2022/08/22 18:47:17;;;;;;;9.73;8.98;;;;;;;;;;4885655;29;19958;-68
2022/08/22 18:49:47;;;;;;;12.25;9.40;;;;;;;;;;4874547;29;20044;-67
2022/08/22 18:52:28;;;;;;;9.70;9.00;;;;;;;;;;4874150;29;20527;-68
2022/08/22 18:55:16;;;;;;;9.85;8.93;;;;;;;;;;4871955;29;20055;-67
2022/08/22 18:57:47;;;;;;;10.77;9.80;;;;;;;;;;4875119;29;20040;-68
2022/08/22 19:00:17;;;;;;;10.27;9.38;;;;;;;;;;4872107;29;20049;-67
2022/08/22 19:03:07;;;;;;;9.88;9.18;;;;;;;;;;4866378;29;20132;-67
2022/08/22 19:06:15;;;;;;;10.30;9.60;;;;;;;;;;4868822;29;20585;-67
2022/08/22 19:08:52;;;;;;;10.25;9.43;;;;;;;;;;4857806;29;20501;-67
2022/08/22 19:11:46;;;;;;;10.40;9.60;;;;;;;;;;4879458;29;20052;-67
2022/08/22 19:14:31;;;;;;;10.77;9.48;;;;;;;;;;4875009;29;20706;-67
2022/08/22 19:17:15;;;;;;;11.70;9.85;;;;;;;;;;4874452;29;20056;-67
2022/08/22 19:23:36;;;;;;;10.23;9.40;;;;;;;;;;4870601;29;20416;-67
2022/08/22 19:26:22;;;;;;;9.70;8.93;;;;;;;;;;4873641;29;20060;-67
2022/08/22 19:28:51;;;;;;;9.80;8.93;;;;;;;;;;4876903;29;20041;-67
2022/08/22 19:31:35;;;;;;;11.20;9.15;;;;;;;;;;4878204;29;20453;-67
2022/08/22 19:34:11;;;;;;;10.18;9.45;;;;;;;;;;4877334;29;20497;-66
2022/08/22 19:36:38;;;;;;;9.90;9.20;;;;;;;;;;4872156;29;20505;-67
2022/08/22 19:39:07;;;;;;;10.38;9.45;;;;;;;;;;4874157;29;20037;-68
2022/08/22 19:41:51;;;;;;;10.23;9.43;;;;;;;;;;4874654;29;20120;-68
2022/08/22 19:44:17;;;;;;;9.95;9.23;;;;;;;;;;4886508;29;20045;-67
2022/08/22 19:46:46;;;;;;;10.32;9.40;;;;;;;;;;4877907;29;20085;-67
2022/08/22 19:49:39;;;;;;;10.45;9.65;;;;;;;;;;4878221;29;20143;-67
2022/08/22 19:52:18;;;;;;;10.55;9.55;;;;;;;;;;4878720;29;20045;-67
2022/08/22 19:55:01;;;;;;;11.10;10.02;;;;;;;;;;4877348;29;20048;-67
2022/08/22 19:57:45;;;;;;;10.13;9.40;;;;;;;;;;4878274;29;20033;-67
2022/08/22 20:00:39;;;;;;;9.57;8.98;;;;;;;;;;4879909;29;20041;-67
2022/08/22 20:03:33;;;;;;;9.90;9.10;;;;;;;;;;4878868;29;20838;-67
2022/08/22 20:06:42;;;;;;;10.18;9.30;;;;;;;;;;4879856;29;20041;-67
2022/08/22 20:09:32;;;;;;;9.57;8.90;;;;;;;;;;4882017;29;20040;-67
2022/08/22 20:12:24;;;;;;;10.27;9.40;;;;;;;;;;4877097;29;20434;-67
2022/08/22 20:14:50;;;;;;;10.23;8.93;;;;;;;;;;4875370;29;20052;-67
2022/08/22 20:17:25;;;;;;;10.55;9.68;;;;;;;;;;4874535;29;20033;-67
2022/08/22 20:20:00;;;;;;;10.25;9.48;;;;;;;;;;4886102;29;20400;-67
2022/08/22 20:22:29;;;;;;;9.90;9.20;;;;;;;;;;4882095;29;20452;-67
2022/08/22 20:25:01;;;;;;;9.98;9.18;;;;;;;;;;4880290;29;20095;-67
2022/08/22 20:27:26;;;;;;;9.90;9.10;;;;;;;;;;4876870;29;20032;-67
2022/08/22 20:30:14;;;;;;;10.35;9.45;;;;;;;;;;4880195;29;20037;-67
2022/08/22 20:32:54;;;;;;;10.00;9.20;;;;;;;;;;4887098;29;20052;-67
2022/08/22 20:35:25;;;;;;;9.90;9.18;;;;;;;;;;4874367;29;20045;-66
2022/08/22 20:38:04;;;;;;;9.90;9.20;;;;;;;;;;4874055;29;20063;-68
2022/08/22 20:40:46;;;;;;;10.25;9.48;;;;;;;;;;4895012;29;20056;-67
2022/08/22 20:43:25;;;;;;;10.35;9.50;;;;;;;;;;4878563;29;20036;-67
2022/08/22 20:46:17;;;;;;;10.15;9.38;;;;;;;;;;4883186;29;20116;-66
2022/08/22 20:48:45;;;;;;;10.13;9.35;;;;;;;;;;4879486;29;20041;-67
2022/08/22 20:51:20;;;;;;;10.60;9.73;;;;;;;;;;4876240;29;20036;-66
2022/08/22 20:53:54;;;;;;;10.10;9.27;;;;;;;;;;4880862;29;20049;-67
2022/08/22 20:56:49;;;;;;;12.52;9.68;;;;;;;;;;4883617;29;20044;-67
2022/08/22 20:59:37;;;;;;;9.82;9.10;;;;;;;;;;4877772;29;20044;-66
2022/08/22 21:02:02;;;;;;;10.27;9.38;;;;;;;;;;4879068;29;20048;-67
2022/08/22 21:04:37;;;;;;;10.30;9.30;;;;;;;;;;4877092;29;20041;-67
2022/08/22 21:07:03;;;;;;;9.65;8.95;;;;;;;;;;4879577;29;20075;-68
2022/08/22 21:12:13;;;;;;;10.25;9.35;;;;;;;;;;4875501;29;20115;-68
2022/08/22 21:14:48;;;;;;;9.57;8.90;;;;;;;;;;4877399;29;20541;-68
2022/08/22 21:17:20;;;;;;;10.10;9.20;;;;;;;;;;4871981;29;20084;-67
2022/08/22 21:19:45;;;;;;;10.18;9.40;;;;;;;;;;4874617;29;20069;-67
2022/08/22 21:22:13;;;;;;;10.55;9.60;;;;;;;;;;4877489;29;20070;-68
2022/08/22 21:24:39;;;;;;;10.45;9.65;;;;;;;;;;4874686;29;20044;-68
2022/08/22 21:27:05;;;;;;;10.85;10.15;;;;;;;;;;4874408;29;20060;-68
2022/08/22 21:29:33;;;;;;;10.07;9.32;;;;;;;;;;4875453;29;20064;-67
2022/08/22 21:32:12;;;;;;;10.15;9.35;;;;;;;;;;4877574;29;20378;-66
2022/08/22 21:34:48;;;;;;;10.05;9.35;;;;;;;;;;4886082;29;20075;-68
2022/08/22 21:37:21;;;;;;;10.50;9.60;;;;;;;;;;4881959;29;20037;-68
2022/08/22 21:39:49;;;;;;;10.38;9.43;;;;;;;;;;4882299;29;20087;-68
2022/08/22 21:42:29;;;;;;;10.52;9.50;;;;;;;;;;4870983;29;20033;-68
2022/08/22 21:45:08;;;;;;;10.15;9.25;;;;;;;;;;4876636;29;20044;-68
2022/08/22 21:47:41;;;;;;;10.77;9.98;;;;;;;;;;4874432;29;20052;-69
2022/08/22 21:50:13;;;;;;;10.07;9.10;;;;;;;;;;4874730;29;20036;-68
2022/08/22 21:52:42;;;;;;;10.40;9.60;;;;;;;;;;4873800;29;20033;-67
2022/08/22 21:55:22;;;;;;;10.52;9.68;;;;;;;;;;4877044;29;20041;-68
2022/08/22 21:58:00;;;;;;;10.23;9.43;;;;;;;;;;4877871;29;20399;-68
2022/08/22 22:00:50;;;;;;;10.77;9.80;;;;;;;;;;4864346;29;276800;-67
2022/08/22 22:03:26;;;;;;;10.18;9.30;;;;;;;;;;4876376;29;20289;-68
2022/08/22 22:05:55;;;;;;;9.63;9.02;;;;;;;;;;4877258;29;20093;-68
2022/08/22 22:08:21;;;;;;;;;;;;;;;;;;4875616;29;20139;-67
2022/08/22 22:10:48;;;;;;;9.95;9.10;;;;;;;;;;4875061;29;20018;-67
2022/08/22 22:13:16;;;;;;;9.80;9.10;;;;;;;;;;4893997;29;20044;-68
2022/08/22 22:15:45;;;;;;;10.27;9.48;;;;;;;;;;4879986;29;20485;-67
2022/08/22 22:18:13;;;;;;;9.73;9.13;;;;;;;;;;4876648;29;20481;-67
2022/08/22 22:20:40;;;;;;;10.38;9.55;;;;;;;;;;4878469;29;20036;-67
2022/08/22 22:23:06;;;;;;;10.98;9.85;;;;;;;;;;4879302;29;20100;-67
2022/08/22 22:25:33;;;;;;;10.65;9.70;;;;;;;;;;4873998;29;20045;-68
2022/08/22 22:28:01;;;;;;;10.38;9.55;;;;;;;;;;4876151;29;20526;-67
2022/08/22 22:30:27;;;;;;;10.23;9.60;;;;;;;;;;4882756;29;20033;-67
2022/08/22 22:32:52;;;;;;;10.90;10.00;;;;;;;;;;4881611;29;20048;-67
2022/08/22 22:35:18;;;;;;;10.18;9.35;;;;;;;;;;4877853;29;20044;-67
2022/08/22 22:37:44;;;;;;;10.10;9.38;;;;;;;;;;4876830;29;20053;-67
2022/08/22 22:40:11;;;;;;;10.23;9.45;;;;;;;;;;4876787;29;20088;-67
2022/08/22 22:42:37;;;;;;;10.07;9.38;;;;;;;;;;4874471;29;20085;-68
2022/08/22 22:45:04;;;;;;;10.60;9.68;;;;;;;;;;4880826;29;20056;-68
2022/08/22 22:47:32;;;;;;;10.38;9.57;;;;;;;;;;4883338;29;20033;-68
2022/08/22 22:49:58;;;;;;;10.25;9.65;;;;;;;;;;4875831;29;20044;-68
2022/08/22 22:52:24;;;;;;;10.55;9.75;;;;;;;;;;4873804;29;20044;-68
2022/08/22 22:54:51;;;;;;;10.30;9.55;;;;;;;;;;4875842;29;20043;-68
2022/08/22 22:57:18;;;;;;;10.48;9.60;;;;;;;;;;4875142;29;20174;-68
2022/08/22 22:59:44;;;;;;;10.35;9.52;;;;;;;;;;4875694;29;20578;-68
2022/08/22 23:02:16;;;;;;;9.57;8.98;;;;;;;;;;4872687;29;20048;-68
2022/08/22 23:04:45;;;;;;;9.60;9.00;;;;;;;;;;4877337;29;20040;-68
2022/08/22 23:07:13;;;;;;;9.52;8.82;;;;;;;;;;4876116;29;20400;-68
2022/08/22 23:09:40;;;;;;;10.45;9.70;;;;;;;;;;4874629;29;20401;-68
2022/08/22 23:12:06;;;;;;;9.98;9.07;;;;;;;;;;4877316;29;20048;-68
2022/08/22 23:14:33;;;;;;;9.63;8.90;;;;;;;;;;4881672;29;20036;-68
2022/08/22 23:16:59;;;;;;;10.80;9.32;;;;;;;;;;4875785;29;20437;-68
2022/08/22 23:19:26;;;;;;;9.95;9.15;;;;;;;;;;4875818;29;20048;-68
2022/08/22 23:21:54;;;;;;;10.10;9.27;;;;;;;;;;4883849;29;20033;-68
2022/08/22 23:24:20;;;;;;;10.13;9.27;;;;;;;;;;4876356;29;20080;-68
2022/08/22 23:26:45;;;;;;;9.95;9.15;;;;;;;;;;4874827;29;20148;-68
2022/08/22 23:29:12;;;;;;;9.65;9.05;;;;;;;;;;4874321;29;20033;-68
2022/08/22 23:31:47;;;;;;;10.05;9.30;;;;;;;;;;4879644;29;20036;-68
2022/08/22 23:34:16;;;;;;;10.13;9.25;;;;;;;;;;4875318;29;20772;-68
2022/08/22 23:36:44;;;;;;;9.90;9.20;;;;;;;;;;4874492;29;20120;-68
2022/08/22 23:39:13;;;;;;;9.50;8.83;;;;;;;;;;4878447;29;20040;-68
2022/08/22 23:41:39;;;;;;;10.25;9.18;;;;;;;;;;4881582;29;20033;-68
2022/08/22 23:44:08;;;;;;;10.23;9.52;;;;;;;;;;4878824;29;20037;-68
2022/08/22 23:46:33;;;;;;;10.18;9.32;;;;;;;;;;4877407;29;20123;-68
2022/08/22 23:48:59;;;;;;;9.98;9.00;;;;;;;;;;4877393;29;20112;-68
2022/08/22 23:51:25;;;;;;;9.63;9.02;;;;;;;;;;4874961;29;20037;-68
2022/08/22 23:53:53;;;;;;;9.82;9.13;;;;;;;;;;4873764;29;20053;-68
2022/08/22 23:56:31;;;;;;;9.45;8.75;;;;;;;;;;4874862;29;20040;-68
2022/08/22 23:58:58;;;;;;;10.07;9.15;;;;;;;;;;4875651;29;20445;-68
